Time;durP1;ratioP1;P1;durP2;ratioP2;P2;SDS_P1;SDS_P2;PMS_P1;PMS_P2;Temp;Humidity;BMP_temperature;BMP_pressure;BME280_temperature;BME280_humidity;BME280_pressure;Samples;Min_cycle;Max_cycle;Signal;HPM_P1;HPM_P2
2023/05/30 00:01:39;;;;;;;11.70;3.15;;;;;;;;;;5020500;28;20181;-64
2023/05/30 00:04:05;;;;;;;10.80;3.30;;;;;;;;;;5020944;28;20041;-64
2023/05/30 00:06:31;;;;;;;11.38;3.47;;;;;;;;;;5019228;28;20114;-64
2023/05/30 00:08:57;;;;;;;11.73;3.30;;;;;;;;;;5019505;28;20032;-65
2023/05/30 00:11:24;;;;;;;13.98;3.85;;;;;;;;;;5019711;28;20036;-64
2023/05/30 00:13:50;;;;;;;10.45;3.05;;;;;;;;;;5019322;28;20028;-64
2023/05/30 00:16:19;;;;;;;12.68;3.75;;;;;;;;;;5018963;28;20402;-64
2023/05/30 00:18:45;;;;;;;11.23;3.20;;;;;;;;;;5017504;28;20037;-64
2023/05/30 00:21:12;;;;;;;12.85;3.35;;;;;;;;;;5019288;28;20064;-64
2023/05/30 00:23:39;;;;;;;10.38;2.92;;;;;;;;;;5018240;28;20124;-64
2023/05/30 00:26:08;;;;;;;11.77;3.20;;;;;;;;;;5019921;28;20033;-64
2023/05/30 00:28:34;;;;;;;11.38;2.70;;;;;;;;;;5021107;28;20033;-64
2023/05/30 00:31:01;;;;;;;13.88;3.08;;;;;;;;;;5018722;28;20033;-64
2023/05/30 00:33:27;;;;;;;14.70;3.17;;;;;;;;;;5018167;28;20043;-64
2023/05/30 00:35:53;;;;;;;14.80;3.00;;;;;;;;;;5019320;28;20135;-65
2023/05/30 00:38:20;;;;;;;9.65;2.45;;;;;;;;;;5019556;28;21739;-64
2023/05/30 00:40:46;;;;;;;10.52;2.50;;;;;;;;;;5020065;28;20035;-64
2023/05/30 00:43:12;;;;;;;8.52;2.65;;;;;;;;;;5020441;28;20068;-65
2023/05/30 00:45:39;;;;;;;7.10;2.38;;;;;;;;;;5019086;28;20142;-65
2023/05/30 00:48:05;;;;;;;9.77;2.78;;;;;;;;;;5020527;28;20108;-64
2023/05/30 00:50:33;;;;;;;13.40;3.42;;;;;;;;;;5020444;28;20033;-64
2023/05/30 00:53:00;;;;;;;12.73;2.95;;;;;;;;;;5020202;28;20021;-65
2023/05/30 00:55:27;;;;;;;10.70;3.22;;;;;;;;;;5020104;28;21705;-66
2023/05/30 00:57:53;;;;;;;16.45;3.53;;;;;;;;;;5021091;28;20064;-64
2023/05/30 01:00:21;;;;;;;11.85;2.90;;;;;;;;;;5020734;28;20033;-65
2023/05/30 01:02:48;;;;;;;11.35;3.08;;;;;;;;;;5018837;28;20060;-65
2023/05/30 01:05:15;;;;;;;7.57;2.30;;;;;;;;;;5020117;28;20060;-64
2023/05/30 01:07:44;;;;;;;10.32;3.13;;;;;;;;;;5019657;28;20037;-65
2023/05/30 01:10:14;;;;;;;14.05;3.05;;;;;;;;;;5020355;28;20029;-64
2023/05/30 01:12:47;;;;;;;12.95;2.63;;;;;;;;;;5019616;28;21880;-65
2023/05/30 01:15:16;;;;;;;16.13;3.03;;;;;;;;;;5019505;28;20045;-65
2023/05/30 01:18:01;;;;;;;11.35;2.92;;;;;;;;;;5019809;28;21781;-65
2023/05/30 01:20:30;;;;;;;11.60;2.45;;;;;;;;;;5018721;28;20141;-65
2023/05/30 01:23:14;;;;;;;8.15;2.63;;;;;;;;;;5019635;28;20029;-64
2023/05/30 01:25:40;;;;;;;8.80;2.10;;;;;;;;;;5018764;28;20040;-64
2023/05/30 01:28:08;;;;;;;8.68;2.47;;;;;;;;;;5019265;28;20033;-64
2023/05/30 01:30:37;;;;;;;11.25;3.25;;;;;;;;;;5020168;28;20035;-64
2023/05/30 01:33:04;;;;;;;9.27;2.42;;;;;;;;;;5019837;28;20032;-65
2023/05/30 01:35:30;;;;;;;12.88;3.55;;;;;;;;;;5019228;28;20040;-65
2023/05/30 01:37:56;;;;;;;8.90;3.00;;;;;;;;;;5019173;28;20043;-65
2023/05/30 01:40:23;;;;;;;8.88;3.03;;;;;;;;;;5019475;28;20071;-64
2023/05/30 01:42:52;;;;;;;9.85;2.97;;;;;;;;;;5019368;28;20087;-65
2023/05/30 01:45:28;;;;;;;9.55;2.70;;;;;;;;;;5019833;28;20037;-64
2023/05/30 01:47:54;;;;;;;7.97;2.45;;;;;;;;;;5019483;28;20035;-64
2023/05/30 01:50:23;;;;;;;8.75;2.72;;;;;;;;;;5019021;28;20495;-58
2023/05/30 01:52:59;;;;;;;11.90;2.67;;;;;;;;;;5020079;28;20124;-58
2023/05/30 01:55:25;;;;;;;9.50;3.00;;;;;;;;;;5019187;28;20048;-58
2023/05/30 01:57:52;;;;;;;11.90;4.30;;;;;;;;;;5018425;28;20392;-58
2023/05/30 02:00:19;;;;;;;9.20;2.45;;;;;;;;;;5020120;28;20052;-58
2023/05/30 02:02:45;;;;;;;8.50;2.47;;;;;;;;;;5018138;28;20036;-58
2023/05/30 02:05:11;;;;;;;17.27;3.10;;;;;;;;;;5019100;28;20021;-58
2023/05/30 02:07:37;;;;;;;11.02;2.85;;;;;;;;;;5018492;28;20041;-58
2023/05/30 02:10:05;;;;;;;15.55;4.03;;;;;;;;;;5019189;28;20056;-58
2023/05/30 02:12:31;;;;;;;17.65;3.55;;;;;;;;;;5019759;28;20029;-58
2023/05/30 02:14:57;;;;;;;14.05;3.38;;;;;;;;;;5008658;28;20024;-58
2023/05/30 02:17:25;;;;;;;11.82;3.05;;;;;;;;;;5019844;28;20072;-58
2023/05/30 02:19:51;;;;;;;11.48;2.65;;;;;;;;;;5019930;28;20810;-58
2023/05/30 02:22:17;;;;;;;10.38;2.75;;;;;;;;;;5019637;28;20029;-58
2023/05/30 02:24:44;;;;;;;10.95;3.15;;;;;;;;;;5019011;28;20033;-58
2023/05/30 02:27:10;;;;;;;10.80;2.90;;;;;;;;;;5017841;28;20040;-57
2023/05/30 02:29:36;;;;;;;10.38;3.17;;;;;;;;;;5017893;28;20017;-58
2023/05/30 02:32:02;;;;;;;9.13;2.53;;;;;;;;;;5016602;28;20507;-58
2023/05/30 02:34:28;;;;;;;13.88;3.42;;;;;;;;;;5016602;28;20033;-58
2023/05/30 02:36:56;;;;;;;12.75;3.47;;;;;;;;;;5017201;28;20827;-58
2023/05/30 02:39:23;;;;;;;15.63;3.30;;;;;;;;;;5020176;28;20048;-58
2023/05/30 02:41:49;;;;;;;14.10;3.85;;;;;;;;;;5022697;28;20052;-58
2023/05/30 02:44:15;;;;;;;14.48;3.05;;;;;;;;;;5021943;28;20035;-58
2023/05/30 02:46:41;;;;;;;10.30;2.90;;;;;;;;;;5019985;28;21017;-57
2023/05/30 02:49:08;;;;;;;10.93;4.32;;;;;;;;;;5023628;28;20061;-58
2023/05/30 02:51:35;;;;;;;12.27;3.50;;;;;;;;;;5021663;28;20021;-58
2023/05/30 02:54:01;;;;;;;10.95;3.20;;;;;;;;;;5023852;28;20044;-57
2023/05/30 02:56:28;;;;;;;14.88;3.38;;;;;;;;;;5022418;28;20769;-58
2023/05/30 02:58:56;;;;;;;16.02;3.45;;;;;;;;;;5021680;28;20036;-58
2023/05/30 03:01:22;;;;;;;11.75;3.40;;;;;;;;;;5021698;28;20028;-58
2023/05/30 03:03:48;;;;;;;9.65;3.10;;;;;;;;;;5023026;28;21419;-58
2023/05/30 03:06:14;;;;;;;16.40;3.53;;;;;;;;;;5021770;28;20040;-58
2023/05/30 03:08:43;;;;;;;8.82;3.17;;;;;;;;;;5023325;28;20048;-57
2023/05/30 03:11:10;;;;;;;11.75;2.65;;;;;;;;;;5022120;28;20036;-58
2023/05/30 03:13:37;;;;;;;14.77;3.70;;;;;;;;;;5021175;28;20037;-57
2023/05/30 03:16:03;;;;;;;9.30;2.88;;;;;;;;;;5021768;28;20092;-58
2023/05/30 03:18:29;;;;;;;13.00;3.95;;;;;;;;;;5022661;28;20037;-58
2023/05/30 03:20:56;;;;;;;14.55;3.15;;;;;;;;;;5021359;28;20728;-58
2023/05/30 03:23:22;;;;;;;15.43;3.50;;;;;;;;;;5022290;28;20985;-58
2023/05/30 03:25:48;;;;;;;9.80;2.92;;;;;;;;;;5022346;28;20037;-58
2023/05/30 03:28:14;;;;;;;12.55;3.95;;;;;;;;;;5021112;28;20068;-58
2023/05/30 03:30:40;;;;;;;11.48;3.15;;;;;;;;;;5021133;28;20153;-58
2023/05/30 03:33:06;;;;;;;11.48;3.50;;;;;;;;;;5021438;28;21032;-58
2023/05/30 03:35:32;;;;;;;13.20;3.55;;;;;;;;;;5022347;28;20508;-58
2023/05/30 03:37:58;;;;;;;14.25;4.05;;;;;;;;;;5022098;28;20123;-58
2023/05/30 03:40:24;;;;;;;12.73;3.70;;;;;;;;;;5021247;28;20071;-58
2023/05/30 03:42:50;;;;;;;12.10;3.38;;;;;;;;;;5020563;28;20047;-58
2023/05/30 03:45:16;;;;;;;12.32;3.60;;;;;;;;;;5021737;28;20440;-58
2023/05/30 03:47:42;;;;;;;14.13;3.63;;;;;;;;;;5021422;28;20041;-58
2023/05/30 03:50:08;;;;;;;12.77;3.35;;;;;;;;;;5021942;28;20033;-58
2023/05/30 03:52:34;;;;;;;9.88;3.28;;;;;;;;;;5020274;28;20033;-58
2023/05/30 03:55:00;;;;;;;10.55;3.40;;;;;;;;;;5022141;28;20111;-57
2023/05/30 03:57:27;;;;;;;10.80;3.22;;;;;;;;;;5022055;28;20033;-58
2023/05/30 03:59:53;;;;;;;15.75;3.70;;;;;;;;;;5021915;28;20070;-58
2023/05/30 04:02:19;;;;;;;9.45;2.65;;;;;;;;;;5020886;28;20041;-58
2023/05/30 04:04:45;;;;;;;10.88;3.40;;;;;;;;;;5022609;28;20381;-57
2023/05/30 04:07:11;;;;;;;12.98;4.05;;;;;;;;;;5021816;28;20037;-58
2023/05/30 04:09:37;;;;;;;16.65;3.53;;;;;;;;;;5020632;28;21710;-58
2023/05/30 04:12:03;;;;;;;17.63;3.50;;;;;;;;;;5021557;28;20115;-58
2023/05/30 04:14:29;;;;;;;9.93;3.45;;;;;;;;;;5021587;28;20029;-57
2023/05/30 04:16:55;;;;;;;13.48;3.28;;;;;;;;;;5021894;28;20040;-57
2023/05/30 04:19:21;;;;;;;13.10;3.20;;;;;;;;;;5021382;28;20041;-57
2023/05/30 04:21:47;;;;;;;21.45;4.57;;;;;;;;;;5020580;28;20052;-58
2023/05/30 04:24:14;;;;;;;13.25;3.70;;;;;;;;;;5021620;28;20049;-58
2023/05/30 04:26:40;;;;;;;12.43;3.55;;;;;;;;;;5021369;28;20033;-58
2023/05/30 04:29:08;;;;;;;12.35;3.38;;;;;;;;;;5020844;28;20040;-58
2023/05/30 04:31:34;;;;;;;13.18;3.20;;;;;;;;;;5019236;28;20127;-57
2023/05/30 04:34:00;;;;;;;14.10;3.92;;;;;;;;;;5018401;28;20029;-58
2023/05/30 04:36:27;;;;;;;13.25;3.40;;;;;;;;;;5018554;28;20037;-58
2023/05/30 04:38:53;;;;;;;12.40;3.15;;;;;;;;;;5018110;28;20604;-58
2023/05/30 04:41:20;;;;;;;14.32;3.83;;;;;;;;;;5018107;28;20903;-58
2023/05/30 04:43:52;;;;;;;13.43;3.30;;;;;;;;;;5019937;28;20037;-57
2023/05/30 04:46:21;;;;;;;8.98;2.95;;;;;;;;;;5020928;28;20037;-58
2023/05/30 04:48:48;;;;;;;21.17;3.47;;;;;;;;;;5020575;28;20029;-58
2023/05/30 04:51:14;;;;;;;10.85;3.08;;;;;;;;;;5020411;28;20036;-58
2023/05/30 04:53:41;;;;;;;14.23;4.15;;;;;;;;;;5020486;28;20068;-58
2023/05/30 04:56:07;;;;;;;13.10;3.45;;;;;;;;;;5021292;28;20057;-58
2023/05/30 04:58:33;;;;;;;12.35;4.00;;;;;;;;;;5019387;28;20492;-58
2023/05/30 05:00:59;;;;;;;13.90;3.50;;;;;;;;;;5020115;28;20032;-58
2023/05/30 05:03:26;;;;;;;17.63;4.38;;;;;;;;;;5020036;28;20040;-58
2023/05/30 05:05:52;;;;;;;9.90;2.97;;;;;;;;;;5019237;28;20146;-57
2023/05/30 05:08:18;;;;;;;9.20;2.50;;;;;;;;;;5020546;28;20056;-58
2023/05/30 05:10:44;;;;;;;11.57;2.90;;;;;;;;;;5020492;28;20041;-58
2023/05/30 05:13:10;;;;;;;12.70;2.78;;;;;;;;;;5020643;28;20056;-58
2023/05/30 05:15:36;;;;;;;9.98;2.25;;;;;;;;;;5019172;28;20037;-58
2023/05/30 05:18:02;;;;;;;9.10;2.60;;;;;;;;;;5019316;28;20111;-58
2023/05/30 05:20:29;;;;;;;5.50;2.35;;;;;;;;;;5019110;28;20212;-58
2023/05/30 05:22:55;;;;;;;7.93;2.03;;;;;;;;;;5020319;28;20033;-58
2023/05/30 05:25:21;;;;;;;7.90;2.70;;;;;;;;;;5020353;28;20036;-58
2023/05/30 05:27:47;;;;;;;9.63;2.67;;;;;;;;;;5020438;28;20041;-58
2023/05/30 05:30:13;;;;;;;7.03;2.35;;;;;;;;;;5019036;28;20033;-58
2023/05/30 05:32:40;;;;;;;7.63;2.38;;;;;;;;;;5019221;28;21856;-57
2023/05/30 05:35:07;;;;;;;11.82;2.97;;;;;;;;;;5019848;28;20025;-57
2023/05/30 05:37:34;;;;;;;9.40;2.38;;;;;;;;;;5020116;28;20033;-57
2023/05/30 05:40:04;;;;;;;9.48;2.47;;;;;;;;;;5017073;28;20766;-57
2023/05/30 05:42:30;;;;;;;9.10;2.92;;;;;;;;;;5018258;28;20039;-57
2023/05/30 05:44:56;;;;;;;8.90;3.50;;;;;;;;;;5006822;28;21674;-58
2023/05/30 05:47:22;;;;;;;8.75;2.40;;;;;;;;;;5019874;28;20045;-58
2023/05/30 05:49:48;;;;;;;9.15;2.20;;;;;;;;;;5019860;28;20387;-58
2023/05/30 05:52:14;;;;;;;10.20;2.70;;;;;;;;;;5020183;28;20391;-58
2023/05/30 05:54:40;;;;;;;8.98;2.42;;;;;;;;;;5018186;28;20040;-58
2023/05/30 05:57:06;;;;;;;8.82;2.55;;;;;;;;;;5019899;28;20033;-57
2023/05/30 05:59:33;;;;;;;9.77;2.35;;;;;;;;;;5018713;28;20163;-58
2023/05/30 06:01:59;;;;;;;9.95;3.00;;;;;;;;;;5019179;28;20156;-57
2023/05/30 06:04:25;;;;;;;10.30;2.38;;;;;;;;;;5020051;28;20798;-58
2023/05/30 06:06:51;;;;;;;8.68;2.10;;;;;;;;;;5020048;28;20037;-57
2023/05/30 06:09:17;;;;;;;13.68;3.00;;;;;;;;;;5020049;28;20034;-58
2023/05/30 06:11:43;;;;;;;12.57;2.70;;;;;;;;;;5020112;28;20071;-58
2023/05/30 06:14:09;;;;;;;10.68;2.58;;;;;;;;;;5019948;28;20075;-57
2023/05/30 06:16:35;;;;;;;10.68;3.20;;;;;;;;;;5022941;28;20030;-57
2023/05/30 06:19:01;;;;;;;11.63;3.60;;;;;;;;;;5023239;28;20047;-58
2023/05/30 06:21:27;;;;;;;9.10;1.92;;;;;;;;;;5023222;28;21747;-58
2023/05/30 06:23:53;;;;;;;10.52;2.95;;;;;;;;;;5023501;28;20102;-58
2023/05/30 06:26:20;;;;;;;11.18;2.70;;;;;;;;;;5023022;28;20064;-58
2023/05/30 06:28:50;;;;;;;9.32;2.85;;;;;;;;;;5021801;28;20025;-57
2023/05/30 06:31:16;;;;;;;8.13;2.78;;;;;;;;;;5021754;28;20033;-58
2023/05/30 06:33:42;;;;;;;7.35;2.28;;;;;;;;;;5020570;28;20106;-58
2023/05/30 06:36:08;;;;;;;7.32;2.20;;;;;;;;;;5020308;28;20025;-57
2023/05/30 06:38:34;;;;;;;9.77;2.42;;;;;;;;;;5020677;28;20029;-58
2023/05/30 06:41:00;;;;;;;7.18;2.45;;;;;;;;;;5020773;28;20039;-58
2023/05/30 06:43:26;;;;;;;12.35;2.80;;;;;;;;;;5020826;28;20033;-58
2023/05/30 06:45:52;;;;;;;12.93;3.13;;;;;;;;;;5020569;28;20025;-57
2023/05/30 06:48:18;;;;;;;8.10;2.00;;;;;;;;;;5021370;28;20037;-57
2023/05/30 06:50:44;;;;;;;11.85;2.53;;;;;;;;;;5022411;28;21767;-58
2023/05/30 06:53:10;;;;;;;6.70;2.30;;;;;;;;;;5021194;28;20036;-57
2023/05/30 06:55:37;;;;;;;11.50;2.13;;;;;;;;;;5020422;28;20476;-58
2023/05/30 06:58:05;;;;;;;7.72;2.03;;;;;;;;;;5019323;28;20911;-58
2023/05/30 07:00:31;;;;;;;5.45;1.48;;;;;;;;;;5019781;28;20123;-58
2023/05/30 07:03:00;;;;;;;7.60;1.83;;;;;;;;;;5019440;28;20410;-58
2023/05/30 07:05:26;;;;;;;3.00;1.08;;;;;;;;;;5019596;28;20590;-57
2023/05/30 07:07:52;;;;;;;4.38;1.33;;;;;;;;;;5019520;28;20037;-58
2023/05/30 07:10:18;;;;;;;5.85;1.58;;;;;;;;;;5021722;28;20416;-58
2023/05/30 07:12:44;;;;;;;6.72;2.03;;;;;;;;;;5021973;28;20064;-58
2023/05/30 07:15:10;;;;;;;5.90;1.65;;;;;;;;;;5021368;28;20035;-58
2023/05/30 07:17:36;;;;;;;5.55;1.30;;;;;;;;;;5021751;28;20041;-57
2023/05/30 07:20:03;;;;;;;5.50;1.65;;;;;;;;;;5022359;28;20048;-58
2023/05/30 07:22:29;;;;;;;3.33;1.40;;;;;;;;;;5022120;28;20078;-57
2023/05/30 07:24:55;;;;;;;9.13;1.98;;;;;;;;;;5022837;28;20044;-57
2023/05/30 07:27:21;;;;;;;5.93;1.95;;;;;;;;;;5020236;28;20040;-57
2023/05/30 07:29:47;;;;;;;6.82;1.60;;;;;;;;;;5021626;28;20033;-58
2023/05/30 07:32:13;;;;;;;5.22;1.40;;;;;;;;;;5022186;28;20032;-57
2023/05/30 07:34:42;;;;;;;7.72;1.95;;;;;;;;;;5021662;28;20112;-58
2023/05/30 07:37:09;;;;;;;5.22;1.80;;;;;;;;;;5021825;28;20033;-57
2023/05/30 07:39:35;;;;;;;5.90;1.52;;;;;;;;;;5020388;28;20059;-58
2023/05/30 07:42:02;;;;;;;5.32;1.58;;;;;;;;;;5022420;28;20502;-58
2023/05/30 07:44:28;;;;;;;8.25;1.90;;;;;;;;;;5021503;28;20029;-58
2023/05/30 07:46:55;;;;;;;8.23;1.70;;;;;;;;;;5020842;28;20032;-58
2023/05/30 07:49:22;;;;;;;6.63;1.60;;;;;;;;;;5022219;28;20027;-58
2023/05/30 07:51:49;;;;;;;4.55;1.45;;;;;;;;;;5021479;28;20468;-57
2023/05/30 07:54:15;;;;;;;4.30;1.48;;;;;;;;;;5010565;28;20083;-58
2023/05/30 07:56:41;;;;;;;6.97;1.80;;;;;;;;;;5021237;28;20029;-57
2023/05/30 07:59:07;;;;;;;5.90;1.50;;;;;;;;;;5021313;28;20041;-57
2023/05/30 08:01:33;;;;;;;7.03;1.70;;;;;;;;;;5020875;28;20067;-58
2023/05/30 08:04:00;;;;;;;6.60;1.50;;;;;;;;;;5021760;28;21044;-57
2023/05/30 08:06:26;;;;;;;5.90;1.85;;;;;;;;;;5021103;28;20063;-58
2023/05/30 08:08:52;;;;;;;5.15;1.50;;;;;;;;;;5021273;28;20028;-58
2023/05/30 08:11:19;;;;;;;4.20;1.10;;;;;;;;;;5021340;28;20029;-58
2023/05/30 08:13:47;;;;;;;6.50;1.10;;;;;;;;;;5020296;28;20484;-58
2023/05/30 08:16:13;;;;;;;4.90;1.73;;;;;;;;;;5021333;28;20060;-58
2023/05/30 08:18:41;;;;;;;1.85;0.70;;;;;;;;;;5020988;28;20029;-57
2023/05/30 08:21:11;;;;;;;2.05;0.57;;;;;;;;;;5021178;28;20520;-58
2023/05/30 08:23:37;;;;;;;3.35;0.77;;;;;;;;;;5021440;28;20021;-57
2023/05/30 08:26:03;;;;;;;2.95;1.02;;;;;;;;;;5020969;28;20029;-58
2023/05/30 08:28:29;;;;;;;2.35;1.00;;;;;;;;;;5021050;28;20037;-58
2023/05/30 08:30:55;;;;;;;2.92;0.80;;;;;;;;;;5020741;28;20134;-57
2023/05/30 08:33:22;;;;;;;3.53;0.95;;;;;;;;;;5019742;28;20679;-57
2023/05/30 08:35:48;;;;;;;3.55;0.63;;;;;;;;;;5020977;28;20076;-58
2023/05/30 08:38:14;;;;;;;1.13;0.60;;;;;;;;;;5018718;28;20044;-58
2023/05/30 08:40:45;;;;;;;1.27;0.60;;;;;;;;;;5019048;28;20410;-57
2023/05/30 08:43:11;;;;;;;1.70;0.63;;;;;;;;;;5017883;28;20054;-58
2023/05/30 08:45:38;;;;;;;2.72;0.82;;;;;;;;;;5018379;28;20040;-58
2023/05/30 08:48:06;;;;;;;0.63;0.40;;;;;;;;;;5023918;28;20083;-57
2023/05/30 08:50:32;;;;;;;1.52;0.60;;;;;;;;;;5025917;28;20029;-58
2023/05/30 08:53:04;;;;;;;3.00;0.57;;;;;;;;;;5026176;28;20036;-57
2023/05/30 08:55:31;;;;;;;1.88;0.50;;;;;;;;;;5027655;28;20853;-57
2023/05/30 08:58:08;;;;;;;3.63;1.35;;;;;;;;;;5027249;28;20119;-58
2023/05/30 09:00:35;;;;;;;4.03;0.70;;;;;;;;;;5027223;28;20040;-58
2023/05/30 09:03:05;;;;;;;1.75;0.70;;;;;;;;;;5027485;28;20086;-57
2023/05/30 09:05:33;;;;;;;2.47;0.57;;;;;;;;;;5027601;28;20037;-58
2023/05/30 09:08:00;;;;;;;3.00;0.55;;;;;;;;;;5028376;28;20037;-58
2023/05/30 09:10:26;;;;;;;2.00;0.60;;;;;;;;;;5027651;28;20040;-58
2023/05/30 09:12:52;;;;;;;2.50;0.50;;;;;;;;;;5027779;28;20847;-58
2023/05/30 09:15:19;;;;;;;1.20;0.32;;;;;;;;;;5027902;28;20036;-57
2023/05/30 09:17:45;;;;;;;1.35;0.80;;;;;;;;;;5027360;28;20112;-57
2023/05/30 09:20:18;;;;;;;1.70;0.50;;;;;;;;;;5027708;28;20044;-58
2023/05/30 09:22:45;;;;;;;;;;;;;;;;;;5027713;28;20037;-58
2023/05/30 09:25:12;;;;;;;0.95;0.60;;;;;;;;;;5027622;28;20042;-58
2023/05/30 09:27:38;;;;;;;1.63;0.50;;;;;;;;;;5027113;28;20036;-58
2023/05/30 09:30:08;;;;;;;1.58;0.52;;;;;;;;;;5027939;28;20071;-57
2023/05/30 09:32:36;;;;;;;2.20;0.60;;;;;;;;;;5027026;28;20078;-57
2023/05/30 09:35:09;;;;;;;2.15;0.47;;;;;;;;;;5027906;28;20254;-58
2023/05/30 09:37:36;;;;;;;3.83;0.70;;;;;;;;;;5027859;28;20032;-57
2023/05/30 09:40:10;;;;;;;2.35;0.40;;;;;;;;;;5027438;28;20090;-58
2023/05/30 09:42:43;;;;;;;0.38;0.30;;;;;;;;;;5027627;28;20387;-58
2023/05/30 09:45:11;;;;;;;1.00;0.55;;;;;;;;;;5027556;28;20039;-58
2023/05/30 09:47:41;;;;;;;0.98;0.60;;;;;;;;;;5027187;28;20041;-58
2023/05/30 09:50:08;;;;;;;1.08;0.50;;;;;;;;;;5027168;28;20119;-58
2023/05/30 09:52:34;;;;;;;1.88;0.70;;;;;;;;;;5027322;28;20116;-57
2023/05/30 09:55:05;;;;;;;4.68;0.77;;;;;;;;;;5027850;28;20029;-58
2023/05/30 09:57:31;;;;;;;1.00;0.60;;;;;;;;;;5027521;28;20110;-58
2023/05/30 09:59:57;;;;;;;2.72;0.57;;;;;;;;;;5027541;28;20037;-58
2023/05/30 10:02:23;;;;;;;1.85;0.50;;;;;;;;;;5027789;28;20044;-57
2023/05/30 10:04:52;;;;;;;1.38;0.60;;;;;;;;;;5027337;28;20082;-57
2023/05/30 10:07:22;;;;;;;3.42;0.70;;;;;;;;;;5027491;28;21651;-58
2023/05/30 10:09:49;;;;;;;2.42;0.63;;;;;;;;;;5026366;28;20044;-58
2023/05/30 10:12:16;;;;;;;3.40;0.80;;;;;;;;;;5026808;28;20191;-58
2023/05/30 10:14:43;;;;;;;1.13;0.63;;;;;;;;;;5027553;28;20124;-58
2023/05/30 10:17:16;;;;;;;1.02;0.50;;;;;;;;;;5025526;28;20036;-57
2023/05/30 10:19:51;;;;;;;1.27;0.57;;;;;;;;;;5027229;28;20037;-58
2023/05/30 10:22:21;;;;;;;3.40;0.50;;;;;;;;;;5025772;28;20051;-58
2023/05/30 10:24:47;;;;;;;1.60;0.68;;;;;;;;;;5027464;28;20677;-58
2023/05/30 10:27:25;;;;;;;1.73;0.68;;;;;;;;;;5027280;28;20076;-57
2023/05/30 10:30:00;;;;;;;2.50;0.70;;;;;;;;;;5027359;28;20167;-57
2023/05/30 10:32:27;;;;;;;4.10;0.90;;;;;;;;;;5027761;28;20067;-57
2023/05/30 10:34:59;;;;;;;3.30;0.95;;;;;;;;;;5027582;28;20068;-57
2023/05/30 10:37:25;;;;;;;6.05;1.35;;;;;;;;;;5027511;28;20032;-58
2023/05/30 10:40:11;;;;;;;3.17;1.10;;;;;;;;;;5027203;28;20147;-58
2023/05/30 10:42:41;;;;;;;4.00;0.88;;;;;;;;;;5026750;28;20039;-58
2023/05/30 10:45:13;;;;;;;1.80;0.90;;;;;;;;;;5026985;28;20111;-58
2023/05/30 10:47:45;;;;;;;1.13;0.60;;;;;;;;;;5024851;28;20048;-58
2023/05/30 10:50:17;;;;;;;1.85;0.80;;;;;;;;;;5024962;28;20021;-58
2023/05/30 10:52:44;;;;;;;3.47;1.05;;;;;;;;;;5025940;28;20029;-58
2023/05/30 10:55:11;;;;;;;3.00;0.80;;;;;;;;;;5026225;28;20107;-58
2023/05/30 10:57:37;;;;;;;2.28;1.10;;;;;;;;;;5025373;28;20171;-58
2023/05/30 11:00:24;;;;;;;4.57;1.30;;;;;;;;;;5027058;28;20698;-58
2023/05/30 11:02:53;;;;;;;2.53;0.90;;;;;;;;;;5028472;28;20037;-58
2023/05/30 11:05:21;;;;;;;3.83;1.33;;;;;;;;;;5030384;28;20044;-58
2023/05/30 11:07:47;;;;;;;2.05;1.00;;;;;;;;;;5029510;28;20029;-58
2023/05/30 11:10:15;;;;;;;2.05;0.80;;;;;;;;;;5030254;28;21539;-58
2023/05/30 11:12:42;;;;;;;2.90;1.10;;;;;;;;;;5029177;28;20065;-58
2023/05/30 11:15:09;;;;;;;1.98;0.82;;;;;;;;;;5029908;28;20037;-58
2023/05/30 11:17:35;;;;;;;3.38;1.10;;;;;;;;;;5029483;28;20033;-58
2023/05/30 11:20:08;;;;;;;5.30;1.00;;;;;;;;;;5029895;28;21098;-58
2023/05/30 11:22:35;;;;;;;1.00;0.70;;;;;;;;;;5029667;28;20099;-57
2023/05/30 11:25:19;;;;;;;1.73;0.80;;;;;;;;;;5029772;28;20048;-57
2023/05/30 11:28:00;;;;;;;2.20;1.00;;;;;;;;;;5029716;28;20383;-57
2023/05/30 11:30:26;;;;;;;1.90;0.77;;;;;;;;;;5029720;28;20064;-58
2023/05/30 11:32:53;;;;;;;0.93;0.68;;;;;;;;;;5029607;28;20044;-58
2023/05/30 11:35:20;;;;;;;1.35;0.85;;;;;;;;;;5029416;28;20033;-58
2023/05/30 11:37:46;;;;;;;2.22;0.85;;;;;;;;;;5029312;28;20057;-58
2023/05/30 11:40:15;;;;;;;2.25;0.80;;;;;;;;;;5029645;28;20075;-58
2023/05/30 11:42:42;;;;;;;2.38;1.05;;;;;;;;;;5029159;28;20070;-57
2023/05/30 11:45:08;;;;;;;2.22;1.00;;;;;;;;;;5029563;28;20033;-58
2023/05/30 11:47:34;;;;;;;1.73;0.88;;;;;;;;;;5029017;28;20970;-58
2023/05/30 11:50:00;;;;;;;2.80;1.00;;;;;;;;;;5029249;28;20025;-58
2023/05/30 11:52:26;;;;;;;2.25;0.90;;;;;;;;;;5029000;28;20430;-58
2023/05/30 11:55:00;;;;;;;2.08;0.65;;;;;;;;;;5029040;28;20075;-58
2023/05/30 11:57:27;;;;;;;2.38;1.05;;;;;;;;;;5029241;28;20032;-57
2023/05/30 11:59:54;;;;;;;2.72;1.00;;;;;;;;;;5028984;28;20557;-58
2023/05/30 12:02:20;;;;;;;3.22;1.10;;;;;;;;;;5029210;28;20021;-58
2023/05/30 12:04:49;;;;;;;2.97;1.08;;;;;;;;;;5028511;28;20033;-58
2023/05/30 12:07:16;;;;;;;1.48;1.05;;;;;;;;;;5028697;28;20033;-58
2023/05/30 12:09:42;;;;;;;2.10;1.20;;;;;;;;;;5028891;28;21108;-58
2023/05/30 12:12:09;;;;;;;2.67;1.10;;;;;;;;;;5027728;28;20024;-58
2023/05/30 12:14:39;;;;;;;1.92;1.02;;;;;;;;;;5029039;28;20029;-57
2023/05/30 12:17:24;;;;;;;3.17;1.20;;;;;;;;;;5027864;28;20128;-58
2023/05/30 12:19:59;;;;;;;2.80;1.40;;;;;;;;;;5028742;28;20684;-58
2023/05/30 12:22:25;;;;;;;2.95;1.20;;;;;;;;;;5028161;28;20681;-58
2023/05/30 12:24:52;;;;;;;4.03;1.50;;;;;;;;;;5028824;28;20119;-58
2023/05/30 12:27:19;;;;;;;1.80;1.00;;;;;;;;;;5022690;28;20037;-58
2023/05/30 12:29:45;;;;;;;3.33;1.20;;;;;;;;;;5021286;28;20110;-57
2023/05/30 12:32:11;;;;;;;2.95;1.15;;;;;;;;;;5021500;28;20423;-58
2023/05/30 12:34:45;;;;;;;3.20;1.15;;;;;;;;;;5021939;28;20450;-58
2023/05/30 12:37:11;;;;;;;5.38;1.38;;;;;;;;;;5022032;28;20052;-57
2023/05/30 12:39:45;;;;;;;2.83;1.02;;;;;;;;;;5021027;28;21955;-58
2023/05/30 12:42:12;;;;;;;4.28;0.82;;;;;;;;;;5021502;28;20043;-58
2023/05/30 12:44:51;;;;;;;2.58;0.95;;;;;;;;;;5021822;28;20040;-58
2023/05/30 12:47:18;;;;;;;2.45;0.95;;;;;;;;;;5019641;28;20507;-58
2023/05/30 12:49:44;;;;;;;3.35;1.52;;;;;;;;;;5019868;28;20109;-58
2023/05/30 12:52:11;;;;;;;2.58;1.20;;;;;;;;;;5019436;28;20043;-58
2023/05/30 12:54:37;;;;;;;2.75;1.10;;;;;;;;;;5018740;28;20025;-58
2023/05/30 12:57:07;;;;;;;2.45;1.17;;;;;;;;;;5019559;28;20106;-58
2023/05/30 12:59:33;;;;;;;3.17;1.20;;;;;;;;;;5020314;28;20029;-58
2023/05/30 13:01:59;;;;;;;2.38;1.20;;;;;;;;;;5019073;28;20038;-58
2023/05/30 13:04:25;;;;;;;2.63;1.20;;;;;;;;;;5018922;28;20047;-58
2023/05/30 13:06:52;;;;;;;2.05;0.88;;;;;;;;;;5016628;28;20122;-58
2023/05/30 13:09:18;;;;;;;2.35;1.20;;;;;;;;;;5018785;28;20028;-58
2023/05/30 13:11:45;;;;;;;3.88;1.40;;;;;;;;;;5018042;28;20163;-58
2023/05/30 13:14:11;;;;;;;1.65;1.05;;;;;;;;;;5017716;28;20062;-58
2023/05/30 13:16:37;;;;;;;3.03;1.20;;;;;;;;;;5018170;28;20047;-65
2023/05/30 13:19:04;;;;;;;2.72;1.20;;;;;;;;;;5017224;28;20032;-64
2023/05/30 13:21:30;;;;;;;2.20;0.80;;;;;;;;;;5018271;28;20080;-64
2023/05/30 13:23:56;;;;;;;1.33;0.80;;;;;;;;;;5017312;28;20045;-65
2023/05/30 13:26:22;;;;;;;2.47;1.00;;;;;;;;;;5018329;28;20037;-64
2023/05/30 13:28:48;;;;;;;2.08;0.88;;;;;;;;;;5018555;28;20033;-65
2023/05/30 13:31:14;;;;;;;3.97;1.00;;;;;;;;;;5018117;28;20037;-65
2023/05/30 13:33:40;;;;;;;1.75;0.88;;;;;;;;;;5020003;28;20065;-64
2023/05/30 13:36:07;;;;;;;2.65;1.02;;;;;;;;;;5019066;28;20393;-64
2023/05/30 13:38:33;;;;;;;2.92;1.05;;;;;;;;;;5019413;28;20464;-65
2023/05/30 13:40:59;;;;;;;3.78;1.00;;;;;;;;;;5020018;28;20040;-65
2023/05/30 13:43:25;;;;;;;1.73;0.98;;;;;;;;;;5020272;28;20037;-64
2023/05/30 13:45:51;;;;;;;3.20;1.42;;;;;;;;;;5020730;28;20143;-64
2023/05/30 13:48:21;;;;;;;2.45;1.40;;;;;;;;;;5020737;28;20144;-65
2023/05/30 13:50:47;;;;;;;3.38;1.60;;;;;;;;;;5020206;28;20049;-64
2023/05/30 13:53:14;;;;;;;6.28;2.10;;;;;;;;;;5020804;28;21209;-65
2023/05/30 13:55:40;;;;;;;3.63;1.75;;;;;;;;;;5018733;28;20033;-65
2023/05/30 13:58:06;;;;;;;3.40;1.52;;;;;;;;;;5020222;28;20072;-64
2023/05/30 14:00:32;;;;;;;4.00;1.95;;;;;;;;;;5019467;28;20033;-65
2023/05/30 14:03:00;;;;;;;4.72;1.70;;;;;;;;;;5020537;28;20040;-64
2023/05/30 14:05:26;;;;;;;4.43;1.80;;;;;;;;;;5019967;28;20055;-64
2023/05/30 14:07:52;;;;;;;5.00;1.70;;;;;;;;;;5019981;28;20067;-64
2023/05/30 14:10:19;;;;;;;4.28;1.60;;;;;;;;;;5019234;28;20071;-65
2023/05/30 14:12:45;;;;;;;3.40;1.40;;;;;;;;;;5023228;28;20389;-65
2023/05/30 14:15:11;;;;;;;3.33;1.20;;;;;;;;;;5026402;28;20033;-64
2023/05/30 14:17:38;;;;;;;2.97;1.35;;;;;;;;;;5015842;28;20954;-64
2023/05/30 14:20:04;;;;;;;2.85;0.90;;;;;;;;;;5020803;28;20404;-64
2023/05/30 14:22:30;;;;;;;1.90;1.00;;;;;;;;;;5020757;28;21938;-65
2023/05/30 14:24:57;;;;;;;2.72;1.20;;;;;;;;;;5019015;28;20049;-64
2023/05/30 14:27:23;;;;;;;3.10;1.10;;;;;;;;;;5020475;28;20800;-64
2023/05/30 14:29:50;;;;;;;3.70;1.67;;;;;;;;;;5024073;28;20052;-64
2023/05/30 14:32:16;;;;;;;2.78;1.20;;;;;;;;;;5017065;28;20850;-64
2023/05/30 14:34:42;;;;;;;2.83;1.25;;;;;;;;;;5017478;28;20041;-64
2023/05/30 14:37:08;;;;;;;3.75;1.33;;;;;;;;;;5022324;28;20033;-64
2023/05/30 14:39:34;;;;;;;3.80;1.30;;;;;;;;;;5023157;28;20185;-64